Time;durP1;ratioP1;P1;durP2;ratioP2;P2;SDS_P1;SDS_P2;PMS_P1;PMS_P2;Temp;Humidity;BMP_temperature;BMP_pressure;BME280_temperature;BME280_humidity;BME280_pressure;Samples;Min_cycle;Max_cycle;Signal;HPM_P1;HPM_P2
2023/10/20 00:00:07;;;;;;;3.92;2.78;;;16.60;99.90;;;;;;5050197;28;20229;-56
2023/10/20 00:02:34;;;;;;;3.40;2.70;;;16.40;99.90;;;;;;5050639;28;20657;-56
2023/10/20 00:05:04;;;;;;;4.85;2.83;;;16.30;99.90;;;;;;5050802;28;20232;-58
2023/10/20 00:07:31;;;;;;;4.95;2.88;;;16.30;99.90;;;;;;5050952;28;20213;-57
2023/10/20 00:09:59;;;;;;;2.60;2.40;;;16.20;99.90;;;;;;5050646;28;20240;-56
2023/10/20 00:12:26;;;;;;;3.33;2.53;;;16.20;99.90;;;;;;5050725;28;20603;-56
2023/10/20 00:14:53;;;;;;;4.40;2.50;;;16.10;99.90;;;;;;5050667;28;20243;-57
2023/10/20 00:17:20;;;;;;;2.40;2.17;;;16.10;99.90;;;;;;5050809;28;20268;-56
2023/10/20 00:19:47;;;;;;;3.58;2.22;;;16.20;99.90;;;;;;5050537;28;20229;-59
2023/10/20 00:22:15;;;;;;;4.28;2.72;;;16.10;99.90;;;;;;5050551;28;20244;-57
2023/10/20 00:24:41;;;;;;;4.28;2.30;;;16.10;99.90;;;;;;5050750;28;20209;-57
2023/10/20 00:27:09;;;;;;;2.22;1.90;;;16.10;99.90;;;;;;5050300;28;20217;-56
2023/10/20 00:29:36;;;;;;;4.80;2.50;;;16.00;99.90;;;;;;5050496;28;20245;-56
2023/10/20 00:32:04;;;;;;;3.88;2.50;;;16.10;99.90;;;;;;5050219;28;20603;-57
2023/10/20 00:34:32;;;;;;;3.30;2.35;;;16.10;99.90;;;;;;5050490;28;20210;-56
2023/10/20 00:36:58;;;;;;;5.50;2.70;;;16.00;99.90;;;;;;5050267;28;20206;-56
2023/10/20 00:39:25;;;;;;;6.45;2.80;;;16.20;99.90;;;;;;5050188;28;20209;-56
2023/10/20 00:41:52;;;;;;;3.22;2.50;;;16.30;99.90;;;;;;5050272;28;20225;-57
2023/10/20 00:44:20;;;;;;;4.18;2.17;;;16.30;99.90;;;;;;5050526;28;20568;-56
2023/10/20 00:46:47;;;;;;;3.88;2.20;;;16.50;99.90;;;;;;5050329;28;20209;-56
2023/10/20 00:49:13;;;;;;;2.53;2.22;;;16.60;99.90;;;;;;5050581;28;20205;-56
2023/10/20 00:51:41;;;;;;;2.63;2.20;;;16.70;99.90;;;;;;5050218;28;20595;-56
2023/10/20 00:54:13;;;;;;;2.42;2.20;;;16.70;99.90;;;;;;5050741;28;20643;-57
2023/10/20 00:56:41;;;;;;;3.05;2.10;;;16.70;99.90;;;;;;5050498;28;20206;-56
2023/10/20 00:59:08;;;;;;;3.75;2.10;;;16.80;99.90;;;;;;5050064;28;20301;-58
2023/10/20 01:01:36;;;;;;;2.10;1.88;;;16.80;99.90;;;;;;5050103;28;20257;-56
2023/10/20 01:04:03;;;;;;;3.63;2.15;;;16.80;99.90;;;;;;5050045;28;20679;-55
2023/10/20 01:06:30;;;;;;;3.22;2.08;;;16.80;99.90;;;;;;5050258;28;20225;-56
2023/10/20 01:08:58;;;;;;;3.03;2.30;;;16.80;99.90;;;;;;5052545;28;20694;-56
2023/10/20 01:11:25;;;;;;;2.33;2.00;;;16.90;99.90;;;;;;5053702;28;20710;-56
2023/10/20 01:13:52;;;;;;;4.78;1.98;;;16.90;99.90;;;;;;5054016;28;20209;-56
2023/10/20 01:16:19;;;;;;;2.90;2.10;;;16.90;99.90;;;;;;5053730;28;20198;-57
2023/10/20 01:18:47;;;;;;;1.75;1.65;;;17.00;99.90;;;;;;5054252;28;20240;-56
2023/10/20 01:21:14;;;;;;;2.28;1.95;;;16.90;99.90;;;;;;5053118;28;20235;-57
2023/10/20 01:23:40;;;;;;;3.47;2.20;;;16.90;99.90;;;;;;5053863;28;20206;-58
2023/10/20 01:26:08;;;;;;;2.55;1.80;;;16.90;99.90;;;;;;5053566;28;20202;-56
2023/10/20 01:28:35;;;;;;;3.50;2.08;;;16.90;99.90;;;;;;5053698;28;20226;-56
2023/10/20 01:31:03;;;;;;;3.17;2.03;;;16.90;99.90;;;;;;5053230;28;20221;-55
2023/10/20 01:33:30;;;;;;;3.47;2.42;;;17.00;99.90;;;;;;5053440;28;20568;-57
2023/10/20 01:35:56;;;;;;;3.30;2.22;;;17.10;99.90;;;;;;5053126;28;20209;-58
2023/10/20 01:38:23;;;;;;;3.90;2.20;;;17.10;99.90;;;;;;5053868;28;20229;-56
2023/10/20 01:40:50;;;;;;;3.05;2.20;;;17.10;99.90;;;;;;5053276;28;20229;-58
2023/10/20 01:43:18;;;;;;;2.95;2.08;;;17.10;99.90;;;;;;5053267;28;20668;-59
2023/10/20 01:45:45;;;;;;;3.45;2.10;;;17.10;99.90;;;;;;5053190;28;20217;-57
2023/10/20 01:48:11;;;;;;;2.33;2.10;;;17.10;99.90;;;;;;5053034;28;20228;-58
2023/10/20 01:50:38;;;;;;;3.83;2.00;;;17.00;99.90;;;;;;5052882;28;20208;-57
2023/10/20 01:53:05;;;;;;;3.22;1.95;;;17.00;99.90;;;;;;5053270;28;20293;-57
2023/10/20 01:55:32;;;;;;;2.92;2.10;;;17.00;99.90;;;;;;5053342;28;20201;-57
2023/10/20 01:57:58;;;;;;;3.38;2.10;;;17.00;99.90;;;;;;5052856;28;20205;-57
2023/10/20 02:00:26;;;;;;;2.83;1.90;;;17.00;99.90;;;;;;5052611;28;20254;-58
2023/10/20 02:02:53;;;;;;;2.72;1.88;;;16.90;99.90;;;;;;5052634;28;20267;-58
2023/10/20 02:05:20;;;;;;;3.00;1.75;;;16.90;99.90;;;;;;5052651;28;20236;-56
2023/10/20 02:07:48;;;;;;;3.08;1.88;;;16.90;99.90;;;;;;5053064;28;20206;-56
2023/10/20 02:10:15;;;;;;;5.25;2.20;;;16.80;99.90;;;;;;5052641;28;20206;-56
2023/10/20 02:12:41;;;;;;;2.88;1.90;;;16.70;99.90;;;;;;5052812;28;20228;-59
2023/10/20 02:15:09;;;;;;;2.75;1.90;;;16.60;99.90;;;;;;5052613;28;20676;-56
2023/10/20 02:17:37;;;;;;;3.38;1.88;;;16.60;99.90;;;;;;5052691;28;20227;-56
2023/10/20 02:20:05;;;;;;;4.20;2.10;;;16.60;99.90;;;;;;5052250;28;20215;-56
2023/10/20 02:22:31;;;;;;;3.08;1.95;;;16.50;99.90;;;;;;5052760;28;20229;-56
2023/10/20 02:24:58;;;;;;;3.47;1.95;;;16.50;99.90;;;;;;5052559;28;20228;-56
2023/10/20 02:27:25;;;;;;;3.60;1.88;;;16.40;99.90;;;;;;5052683;28;20220;-56
2023/10/20 02:29:51;;;;;;;1.90;1.70;;;16.50;99.90;;;;;;5052263;28;20744;-56
2023/10/20 02:32:18;;;;;;;2.08;1.55;;;16.40;99.90;;;;;;5052566;28;20312;-56
2023/10/20 02:34:46;;;;;;;2.92;1.55;;;16.30;99.90;;;;;;5052355;28;20205;-57
2023/10/20 02:37:14;;;;;;;2.88;1.88;;;16.30;99.90;;;;;;5052198;28;20202;-57
2023/10/20 02:39:41;;;;;;;3.10;1.70;;;16.30;99.90;;;;;;5052285;28;20209;-57
2023/10/20 02:42:08;;;;;;;2.30;1.65;;;16.40;99.90;;;;;;5051927;28;20222;-58
2023/10/20 02:44:34;;;;;;;3.40;2.03;;;16.40;99.90;;;;;;5051774;28;20225;-57
2023/10/20 02:47:01;;;;;;;2.35;1.45;;;16.40;99.90;;;;;;5051907;28;20206;-57
2023/10/20 02:49:28;;;;;;;2.30;1.65;;;16.30;99.90;;;;;;5052051;28;20231;-59
2023/10/20 02:51:56;;;;;;;2.40;1.65;;;16.40;99.90;;;;;;5051937;28;20644;-57
2023/10/20 02:54:22;;;;;;;3.70;1.80;;;16.40;99.90;;;;;;5051786;28;20252;-57
2023/10/20 02:56:49;;;;;;;3.15;1.80;;;16.30;99.90;;;;;;5051754;28;20675;-56
2023/10/20 02:59:16;;;;;;;2.15;1.50;;;16.40;99.90;;;;;;5051449;28;20209;-57
2023/10/20 03:01:43;;;;;;;2.08;1.70;;;16.50;99.90;;;;;;5052044;28;20230;-57
2023/10/20 03:04:10;;;;;;;2.55;1.50;;;16.50;99.90;;;;;;5051404;28;20214;-56
2023/10/20 03:06:36;;;;;;;4.40;1.95;;;16.50;99.90;;;;;;5051469;28;20216;-57
2023/10/20 03:09:05;;;;;;;3.35;2.00;;;16.50;99.90;;;;;;5051125;28;20694;-57
2023/10/20 03:11:32;;;;;;;2.47;1.75;;;16.60;99.90;;;;;;5051271;28;20320;-57
2023/10/20 03:13:58;;;;;;;3.28;1.88;;;16.50;99.90;;;;;;5051163;28;20275;-57
2023/10/20 03:16:25;;;;;;;3.45;3.10;;;16.50;99.90;;;;;;5043324;28;20621;-56
2023/10/20 03:18:52;;;;;;;5.75;3.08;;;16.60;99.90;;;;;;5051301;28;20663;-57
2023/10/20 03:21:20;;;;;;;2.80;2.05;;;16.60;99.90;;;;;;5051050;28;20221;-57
2023/10/20 03:23:47;;;;;;;3.30;2.00;;;16.60;99.90;;;;;;5051397;28;20208;-56
2023/10/20 03:26:16;;;;;;;3.03;2.25;;;16.60;99.90;;;;;;5051189;28;20248;-56
2023/10/20 03:28:43;;;;;;;3.25;1.90;;;16.70;99.90;;;;;;5051057;28;20206;-56
2023/10/20 03:31:10;;;;;;;3.60;2.38;;;16.60;99.90;;;;;;5050265;28;20715;-56
2023/10/20 03:33:36;;;;;;;3.58;1.80;;;16.60;99.90;;;;;;5051383;28;20206;-56
2023/10/20 03:36:05;;;;;;;2.28;2.00;;;16.60;99.90;;;;;;5050941;28;20206;-56
2023/10/20 03:38:32;;;;;;;5.07;3.72;;;16.60;99.90;;;;;;5051073;28;20209;-57
2023/10/20 03:41:07;;;;;;;2.33;1.75;;;16.60;99.90;;;;;;5050737;28;20312;-58
2023/10/20 03:43:35;;;;;;;4.25;1.90;;;16.60;99.90;;;;;;5044082;28;20595;-56
2023/10/20 03:46:03;;;;;;;2.83;1.80;;;16.50;99.90;;;;;;5050850;28;20214;-56
2023/10/20 03:48:31;;;;;;;3.03;2.17;;;16.50;99.90;;;;;;5051110;28;20209;-57
2023/10/20 03:50:59;;;;;;;4.18;1.98;;;16.40;99.90;;;;;;5050978;28;20590;-55
2023/10/20 03:53:28;;;;;;;2.70;2.35;;;16.30;99.90;;;;;;5050892;28;20202;-56
2023/10/20 03:55:59;;;;;;;5.03;2.67;;;16.20;99.90;;;;;;5052243;28;20205;-56
2023/10/20 03:58:27;;;;;;;3.58;2.95;;;16.00;99.90;;;;;;5044188;28;20244;-56
2023/10/20 04:00:55;;;;;;;6.53;2.92;;;15.80;99.90;;;;;;5075552;22;20271;-58
2023/10/20 04:03:22;;;;;;;6.32;3.42;;;15.70;99.90;;;;;;5050174;28;20230;-56
2023/10/20 04:05:49;;;;;;;3.03;2.65;;;15.60;99.90;;;;;;5050876;28;20238;-55
2023/10/20 04:08:16;;;;;;;4.88;3.40;;;15.50;99.90;;;;;;5051067;28;20201;-57
2023/10/20 04:10:43;;;;;;;5.93;3.17;;;15.50;99.90;;;;;;5051055;28;20209;-57
2023/10/20 04:13:12;;;;;;;3.97;2.40;;;15.50;99.90;;;;;;5041345;28;20645;-57
2023/10/20 04:15:39;;;;;;;4.93;2.50;;;15.50;99.90;;;;;;5039886;28;20203;-57
2023/10/20 04:18:07;;;;;;;4.78;2.20;;;15.50;99.90;;;;;;5039934;28;20214;-57
2023/10/20 04:20:37;;;;;;;2.35;2.13;;;15.50;99.90;;;;;;5042513;28;20202;-58
2023/10/20 04:23:06;;;;;;;4.20;2.80;;;15.50;99.90;;;;;;5042091;28;20279;-58
2023/10/20 04:25:39;;;;;;;2.83;2.38;;;15.50;99.90;;;;;;5039381;28;20616;-56
2023/10/20 04:28:14;;;;;;;5.00;2.35;;;15.60;99.90;;;;;;5039525;28;20671;-57
2023/10/20 04:41:55;;;;;;;3.42;2.78;;;15.60;99.90;;;;;;5033239;28;20320;-57
2023/10/20 04:58:42;;;;;;;8.85;5.85;;;15.80;99.90;;;;;;5035863;28;20387;-58
2023/10/20 05:01:17;;;;;;;5.68;4.53;;;15.90;99.90;;;;;;5043099;28;20252;-60
2023/10/20 05:03:46;;;;;;;8.30;3.58;;;16.00;99.90;;;;;;5046195;28;20197;-57
2023/10/20 05:06:25;;;;;;;4.82;2.63;;;16.00;99.90;;;;;;5044229;28;20615;-58
2023/10/20 05:08:52;;;;;;;6.35;3.38;;;16.00;99.90;;;;;;5042488;28;20293;-57
2023/10/20 05:11:20;;;;;;;3.83;3.30;;;16.00;99.90;;;;;;5044611;28;20704;-57
2023/10/20 05:13:46;;;;;;;4.32;2.90;;;16.00;99.90;;;;;;5045925;28;20227;-56
2023/10/20 05:16:13;;;;;;;4.35;3.00;;;16.00;99.90;;;;;;5044251;28;20585;-56
2023/10/20 05:18:40;;;;;;;3.40;3.10;;;16.00;99.90;;;;;;5042343;28;20214;-57
2023/10/20 05:21:11;;;;;;;4.13;3.15;;;16.00;99.90;;;;;;5042610;28;20582;-56
2023/10/20 05:23:40;;;;;;;4.40;3.40;;;15.80;99.90;;;;;;5045810;28;20253;-56
2023/10/20 05:26:09;;;;;;;4.75;3.10;;;15.80;99.90;;;;;;5045184;28;20228;-56
2023/10/20 05:28:35;;;;;;;5.03;3.00;;;15.70;99.90;;;;;;5042439;28;20220;-56
2023/10/20 05:31:02;;;;;;;3.70;3.13;;;15.70;99.90;;;;;;5042219;28;20232;-57
2023/10/20 05:33:29;;;;;;;6.00;3.07;;;15.60;99.90;;;;;;5037807;28;20213;-57
2023/10/20 05:36:03;;;;;;;3.50;3.10;;;15.50;99.90;;;;;;5046192;28;20213;-59
2023/10/20 05:38:30;;;;;;;5.80;3.40;;;15.40;99.90;;;;;;5045542;28;20611;-58
2023/10/20 05:40:59;;;;;;;8.10;5.35;;;15.30;99.90;;;;;;5045349;28;20202;-59
2023/10/20 05:43:26;;;;;;;4.15;3.75;;;15.30;99.90;;;;;;5041867;28;20249;-59
2023/10/20 05:45:53;;;;;;;5.53;3.40;;;15.40;99.90;;;;;;5041727;28;20591;-59
2023/10/20 05:48:20;;;;;;;4.43;3.47;;;15.50;99.90;;;;;;5044114;28;20206;-58
2023/10/20 05:50:47;;;;;;;4.57;2.97;;;15.50;99.90;;;;;;5044722;28;20667;-58
2023/10/20 05:53:14;;;;;;;4.60;3.13;;;15.40;99.90;;;;;;5042896;28;20202;-59
2023/10/20 05:55:41;;;;;;;6.38;3.88;;;15.40;99.90;;;;;;5041244;28;20721;-58
2023/10/20 05:58:09;;;;;;;3.65;3.35;;;15.20;99.90;;;;;;5042031;28;20228;-58
2023/10/20 06:00:36;;;;;;;4.47;3.70;;;15.20;99.90;;;;;;5044290;28;20255;-60
2023/10/20 06:03:05;;;;;;;7.53;4.13;;;15.20;99.90;;;;;;5044503;28;20259;-59
2023/10/20 06:05:32;;;;;;;4.87;4.30;;;15.20;99.90;;;;;;5033849;28;20221;-59
2023/10/20 06:07:59;;;;;;;9.03;4.20;;;15.20;99.90;;;;;;5041323;28;20214;-58
2023/10/20 06:10:26;;;;;;;5.72;4.50;;;15.20;99.90;;;;;;5044035;28;20216;-58
2023/10/20 06:12:55;;;;;;;6.07;4.40;;;15.20;99.90;;;;;;5044565;28;20229;-59
2023/10/20 06:15:23;;;;;;;26.10;17.47;;;15.20;99.90;;;;;;5042277;28;20210;-59
2023/10/20 06:17:51;;;;;;;7.17;4.90;;;15.10;99.90;;;;;;5041183;28;20206;-58
2023/10/20 06:20:18;;;;;;;7.60;4.23;;;15.10;99.90;;;;;;5042926;28;20202;-58
2023/10/20 06:22:45;;;;;;;12.43;5.05;;;15.10;99.90;;;;;;5044380;28;20329;-58
2023/10/20 06:25:13;;;;;;;4.60;4.20;;;15.20;99.90;;;;;;5043675;28;20229;-58
2023/10/20 06:27:41;;;;;;;6.93;6.10;;;15.20;99.90;;;;;;5041039;28;20612;-58
2023/10/20 06:30:14;;;;;;;5.33;4.80;;;15.20;99.90;;;;;;5041308;28;20237;-59
2023/10/20 06:32:44;;;;;;;5.15;4.28;;;15.20;99.90;;;;;;5044375;28;20225;-59
2023/10/20 06:35:13;;;;;;;6.43;4.70;;;15.20;99.90;;;;;;5043373;28;20206;-58
2023/10/20 06:37:46;;;;;;;6.77;4.57;;;15.20;99.90;;;;;;5040665;28;20234;-59
2023/10/20 06:40:16;;;;;;;6.15;4.70;;;15.20;99.90;;;;;;5041436;28;20207;-58
2023/10/20 06:42:44;;;;;;;5.93;4.70;;;15.20;99.90;;;;;;5044053;28;20312;-58
2023/10/20 06:45:11;;;;;;;8.67;5.10;;;15.20;99.90;;;;;;5043176;28;20290;-58
2023/10/20 06:47:39;;;;;;;6.00;4.90;;;15.20;99.90;;;;;;5040664;28;20634;-59
2023/10/20 06:50:08;;;;;;;6.75;5.10;;;15.20;99.90;;;;;;5040330;28;20202;-60
2023/10/20 06:52:36;;;;;;;9.52;4.85;;;15.20;99.90;;;;;;5043489;28;20222;-59
2023/10/20 06:55:03;;;;;;;6.40;5.30;;;15.30;99.90;;;;;;5043912;28;20229;-60
2023/10/20 06:57:30;;;;;;;12.52;9.55;;;15.30;99.90;;;;;;5040393;28;20252;-61
2023/10/20 06:59:57;;;;;;;9.07;5.13;;;15.40;99.90;;;;;;5040201;28;20210;-60
2023/10/20 07:02:23;;;;;;;7.28;4.60;;;15.50;99.90;;;;;;5042439;28;20237;-64
2023/10/20 07:04:50;;;;;;;4.77;4.30;;;15.60;99.90;;;;;;5042873;28;20213;-60
2023/10/20 07:07:18;;;;;;;7.93;4.67;;;15.60;99.90;;;;;;5041628;28;20422;-60
2023/10/20 07:09:45;;;;;;;7.57;5.38;;;15.60;99.90;;;;;;5040003;28;20210;-60
2023/10/20 07:12:13;;;;;;;5.88;5.20;;;15.60;99.90;;;;;;5040882;28;20233;-61
2023/10/20 07:14:40;;;;;;;6.57;5.80;;;15.60;99.90;;;;;;5043818;28;20251;-60
2023/10/20 07:17:07;;;;;;;5.88;5.32;;;15.60;99.90;;;;;;5043543;28;20400;-61
2023/10/20 07:19:34;;;;;;;6.22;5.63;;;15.60;99.90;;;;;;5039718;28;20211;-61
2023/10/20 07:22:02;;;;;;;6.70;6.03;;;15.70;99.90;;;;;;5039621;28;20572;-61
2023/10/20 07:24:31;;;;;;;6.40;5.80;;;15.70;99.90;;;;;;5042944;28;20206;-61
2023/10/20 07:26:58;;;;;;;7.75;5.60;;;15.80;99.90;;;;;;5043410;28;20564;-61
2023/10/20 07:29:25;;;;;;;7.32;5.68;;;15.90;99.90;;;;;;5040512;28;20541;-61
2023/10/20 07:31:51;;;;;;;6.78;6.03;;;15.90;99.90;;;;;;5039714;28;20234;-60
2023/10/20 07:34:18;;;;;;;7.70;6.13;;;15.90;99.90;;;;;;5041191;28;20203;-59
2023/10/20 07:36:46;;;;;;;7.75;5.68;;;16.00;99.90;;;;;;5042938;28;20210;-60
2023/10/20 07:39:16;;;;;;;6.90;5.13;;;16.00;99.90;;;;;;5042019;28;20206;-61
2023/10/20 07:41:44;;;;;;;7.20;5.68;;;16.00;99.90;;;;;;5039643;28;20232;-61
2023/10/20 07:44:12;;;;;;;7.10;5.28;;;16.10;99.90;;;;;;5039956;28;20665;-60
2023/10/20 07:46:39;;;;;;;7.00;4.95;;;16.10;99.90;;;;;;5042971;28;20232;-60
2023/10/20 07:49:06;;;;;;;6.80;5.20;;;16.20;99.90;;;;;;5042984;28;20216;-61
2023/10/20 07:51:32;;;;;;;5.82;5.22;;;16.40;99.90;;;;;;5031924;28;20233;-60
2023/10/20 07:53:59;;;;;;;6.10;5.20;;;16.60;99.90;;;;;;5039887;28;20585;-60
2023/10/20 07:56:26;;;;;;;6.45;5.28;;;16.70;99.90;;;;;;5042269;28;20229;-59
2023/10/20 07:58:54;;;;;;;8.70;5.82;;;16.70;99.90;;;;;;5043020;28;20216;-60
2023/10/20 08:01:20;;;;;;;8.18;4.97;;;16.80;99.90;;;;;;5040756;28;20241;-59
2023/10/20 08:03:49;;;;;;;6.15;5.20;;;16.90;99.90;;;;;;5039993;28;20229;-60
2023/10/20 08:06:15;;;;;;;5.30;4.78;;;17.10;99.90;;;;;;5040670;28;20235;-60
2023/10/20 08:08:42;;;;;;;5.50;4.95;;;17.30;99.90;;;;;;5042928;28;20240;-59
2023/10/20 08:11:09;;;;;;;7.22;4.82;;;17.50;99.90;;;;;;5042201;28;20268;-60
2023/10/20 08:13:36;;;;;;;6.53;5.20;;;17.60;99.90;;;;;;5039712;28;20206;-62
2023/10/20 08:16:05;;;;;;;5.93;5.20;;;17.80;99.90;;;;;;5039421;28;20598;-61
2023/10/20 08:18:34;;;;;;;8.10;5.20;;;18.00;99.90;;;;;;5047363;28;20233;-62
2023/10/20 08:21:05;;;;;;;6.43;5.18;;;18.20;99.90;;;;;;5046248;28;20929;-63
2023/10/20 08:23:33;;;;;;;5.80;4.97;;;18.30;99.90;;;;;;5043898;28;20254;-58
2023/10/20 08:26:00;;;;;;;7.55;5.65;;;18.40;99.90;;;;;;5043786;28;20209;-59
2023/10/20 08:28:27;;;;;;;7.07;5.38;;;18.40;99.90;;;;;;5046445;28;20229;-65
2023/10/20 08:31:06;;;;;;;9.15;6.30;;;18.50;99.90;;;;;;5047094;28;20216;-57
2023/10/20 08:33:33;;;;;;;8.23;5.43;;;18.60;99.90;;;;;;5043895;28;20627;-58
2023/10/20 08:36:00;;;;;;;7.43;6.00;;;18.60;99.90;;;;;;5043789;28;20202;-58
2023/10/20 08:38:27;;;;;;;7.70;6.15;;;18.70;99.90;;;;;;5045551;28;20225;-59
2023/10/20 08:40:54;;;;;;;6.40;5.70;;;18.80;99.90;;;;;;5046318;28;20201;-57
2023/10/20 08:43:21;;;;;;;10.38;5.85;;;18.90;99.90;;;;;;5045338;28;20255;-66
2023/10/20 08:45:47;;;;;;;6.55;5.85;;;19.00;99.90;;;;;;5043100;28;20206;-61
2023/10/20 08:48:16;;;;;;;6.47;5.72;;;19.20;99.90;;;;;;5042348;28;20208;-57
2023/10/20 08:50:43;;;;;;;7.15;5.80;;;19.20;99.90;;;;;;5043244;28;20213;-59
2023/10/20 08:53:13;;;;;;;9.60;6.55;;;19.30;99.90;;;;;;5042536;28;20218;-63
2023/10/20 08:55:40;;;;;;;10.05;6.10;;;19.10;99.90;;;;;;5046271;28;20213;-64
2023/10/20 08:58:07;;;;;;;7.80;5.95;;;19.10;99.90;;;;;;5046467;28;20209;-62
2023/10/20 09:00:34;;;;;;;6.57;5.30;;;19.10;99.90;;;;;;5042861;28;20209;-61
2023/10/20 09:03:01;;;;;;;6.93;5.50;;;19.30;99.90;;;;;;5042649;28;20644;-62
2023/10/20 09:05:29;;;;;;;7.03;5.45;;;19.30;99.90;;;;;;5044932;28;20206;-62
2023/10/20 09:07:57;;;;;;;6.82;5.80;;;19.50;99.90;;;;;;5046039;28;20683;-62
2023/10/20 09:10:24;;;;;;;7.32;5.50;;;19.70;99.90;;;;;;5044012;28;20637;-61
2023/10/20 09:12:50;;;;;;;6.78;5.50;;;19.80;99.90;;;;;;5042571;28;20345;-64
2023/10/20 09:15:17;;;;;;;8.18;5.40;;;19.90;99.90;;;;;;5043489;28;20289;-64
2023/10/20 09:17:45;;;;;;;6.63;5.40;;;19.90;99.90;;;;;;5046057;28;20675;-63
2023/10/20 09:20:14;;;;;;;6.63;5.65;;;20.00;99.90;;;;;;5045112;28;20198;-63
2023/10/20 09:22:44;;;;;;;8.57;5.68;;;20.00;99.90;;;;;;5038346;28;20229;-62
2023/10/20 09:25:11;;;;;;;7.40;6.25;;;20.10;99.90;;;;;;5046037;28;20267;-61
2023/10/20 09:27:38;;;;;;;7.18;6.35;;;20.10;99.90;;;;;;5041993;28;20206;-61
2023/10/20 09:30:09;;;;;;;9.98;7.30;;;20.00;99.90;;;;;;5040996;28;20264;-59
2023/10/20 09:32:36;;;;;;;7.63;6.90;;;19.90;99.90;;;;;;5034020;28;20229;-59
2023/10/20 09:35:02;;;;;;;7.25;6.55;;;19.80;99.90;;;;;;5042212;28;20217;-59
2023/10/20 09:37:30;;;;;;;7.28;6.55;;;19.80;99.90;;;;;;5044834;28;20240;-59
2023/10/20 09:40:06;;;;;;;8.18;7.38;;;19.80;99.90;;;;;;5045390;28;20198;-58
2023/10/20 09:42:44;;;;;;;8.30;6.63;;;19.90;99.90;;;;;;5041858;28;20250;-59
2023/10/20 09:45:15;;;;;;;7.93;7.03;;;20.10;99.90;;;;;;5042015;28;20233;-61
2023/10/20 09:47:45;;;;;;;9.85;7.18;;;20.10;99.90;;;;;;5045175;28;20293;-59
2023/10/20 09:50:12;;;;;;;7.80;7.07;;;20.30;99.90;;;;;;5044619;28;20203;-60
2023/10/20 09:52:40;;;;;;;8.32;6.63;;;20.30;99.90;;;;;;5041834;28;20257;-58
2023/10/20 09:55:11;;;;;;;7.90;6.53;;;20.40;99.90;;;;;;5041706;28;20276;-60
2023/10/20 09:57:38;;;;;;;6.55;5.88;;;20.60;99.90;;;;;;5033946;28;20309;-58
2023/10/20 10:00:07;;;;;;;7.65;6.53;;;20.70;99.90;;;;;;5041268;28;20217;-56
2023/10/20 10:02:34;;;;;;;7.90;6.35;;;20.80;99.90;;;;;;5059304;22;20241;-61
2023/10/20 10:05:01;;;;;;;8.20;5.90;;;21.00;99.90;;;;;;5044549;28;20213;-61
2023/10/20 10:07:29;;;;;;;8.27;5.65;;;21.10;99.90;;;;;;5042203;28;20244;-61
2023/10/20 10:09:57;;;;;;;5.07;4.57;;;21.30;99.90;;;;;;5032599;28;20207;-61
2023/10/20 10:12:28;;;;;;;5.47;4.80;;;21.30;99.90;;;;;;5042379;28;20225;-61
2023/10/20 10:14:57;;;;;;;4.47;4.05;;;21.30;99.90;;;;;;5043960;28;20596;-61
2023/10/20 10:17:26;;;;;;;5.22;4.03;;;21.10;99.90;;;;;;5042784;28;20228;-61
2023/10/20 10:19:54;;;;;;;7.35;3.95;;;21.00;99.90;;;;;;5040318;28;20365;-61
2023/10/20 10:22:27;;;;;;;4.93;4.18;;;21.00;99.90;;;;;;5042267;28;20228;-60
2023/10/20 10:24:55;;;;;;;4.57;4.03;;;20.90;99.90;;;;;;5044394;28;20361;-61
2023/10/20 10:27:23;;;;;;;4.25;3.85;;;20.80;99.90;;;;;;5042904;28;20233;-61
2023/10/20 10:29:53;;;;;;;5.05;3.80;;;20.70;99.90;;;;;;5041274;28;20252;-62
2023/10/20 10:32:21;;;;;;;5.07;3.55;;;20.70;99.90;;;;;;5041994;28;21060;-61
2023/10/20 10:34:51;;;;;;;7.85;3.75;;;20.80;99.90;;;;;;5045186;28;20209;-62
2023/10/20 10:37:29;;;;;;;4.07;3.67;;;21.00;99.90;;;;;;5043915;28;20202;-62
2023/10/20 10:40:07;;;;;;;4.28;3.33;;;21.30;99.90;;;;;;5040387;28;20202;-61
2023/10/20 10:42:39;;;;;;;4.05;3.47;;;21.40;99.90;;;;;;5044117;28;20229;-61
2023/10/20 10:45:16;;;;;;;6.75;3.67;;;21.50;99.90;;;;;;5044821;28;20663;-62
2023/10/20 10:47:43;;;;;;;4.60;2.70;;;21.60;99.90;;;;;;5033156;28;20708;-62
2023/10/20 10:50:10;;;;;;;5.60;3.22;;;21.50;99.90;;;;;;5040113;28;20265;-62
2023/10/20 10:52:37;;;;;;;5.57;3.08;;;21.40;99.90;;;;;;5043410;28;20710;-61
2023/10/20 10:55:05;;;;;;;7.68;2.85;;;21.30;99.90;;;;;;5043187;28;20198;-60
2023/10/20 10:57:33;;;;;;;3.13;2.83;;;21.20;99.90;;;;;;5040874;28;20216;-62
2023/10/20 11:00:00;;;;;;;4.75;2.85;;;21.20;99.90;;;;;;5039746;28;20218;-63
2023/10/20 11:02:28;;;;;;;5.28;3.00;;;21.10;99.90;;;;;;5041209;28;20452;-60
2023/10/20 11:04:55;;;;;;;8.13;3.22;;;21.20;99.90;;;;;;5043356;28;20261;-60
2023/10/20 11:07:22;;;;;;;3.75;2.88;;;21.20;99.90;;;;;;5041677;28;20562;-60
2023/10/20 11:09:49;;;;;;;4.88;2.80;;;21.20;99.90;;;;;;5039474;28;20208;-61
2023/10/20 11:12:15;;;;;;;3.67;2.65;;;21.30;99.90;;;;;;5040311;28;20233;-61
2023/10/20 11:14:42;;;;;;;2.83;2.63;;;21.20;99.90;;;;;;5040947;28;20659;-60
2023/10/20 11:17:09;;;;;;;5.75;3.80;;;21.20;99.90;;;;;;5024525;28;20210;-61
2023/10/20 11:19:37;;;;;;;3.40;2.78;;;21.30;99.90;;;;;;5030404;28;20210;-61
2023/10/20 11:22:14;;;;;;;3.75;2.83;;;21.30;99.90;;;;;;5038109;28;20222;-62
2023/10/20 11:24:41;;;;;;;4.53;2.58;;;21.40;99.90;;;;;;5023477;28;20259;-61
2023/10/20 11:27:08;;;;;;;5.30;2.60;;;21.30;99.90;;;;;;5030785;28;20229;-61
2023/10/20 11:29:37;;;;;;;3.15;2.70;;;21.10;99.90;;;;;;5051514;28;20668;-65
2023/10/20 11:32:07;;;;;;;3.42;2.20;;;21.10;99.90;;;;;;5045661;28;20312;-61
2023/10/20 11:34:34;;;;;;;3.63;2.30;;;21.00;99.90;;;;;;5043555;28;20220;-61
2023/10/20 11:37:03;;;;;;;4.28;2.70;;;20.90;99.90;;;;;;5043484;28;20205;-60
2023/10/20 11:39:31;;;;;;;2.65;2.40;;;20.80;99.90;;;;;;5040653;28;20255;-60
2023/10/20 11:41:58;;;;;;;6.90;4.70;;;20.70;99.90;;;;;;5039768;28;20237;-61
2023/10/20 11:44:26;;;;;;;2.65;2.10;;;20.60;99.90;;;;;;5040606;28;20249;-61
2023/10/20 11:46:53;;;;;;;2.20;1.83;;;20.60;99.90;;;;;;5043070;28;20264;-61
2023/10/20 11:49:20;;;;;;;5.15;3.97;;;20.60;99.90;;;;;;5041687;28;20588;-61
2023/10/20 11:51:47;;;;;;;4.72;2.13;;;20.50;99.90;;;;;;5038500;28;20233;-60
2023/10/20 11:54:16;;;;;;;3.00;1.80;;;20.50;99.90;;;;;;5039173;28;20657;-61
2023/10/20 11:56:42;;;;;;;2.10;1.90;;;20.50;99.90;;;;;;5031323;28;20592;-61
2023/10/20 11:59:09;;;;;;;2.67;1.65;;;20.40;99.90;;;;;;5039080;28;20264;-61
2023/10/20 12:01:36;;;;;;;3.33;1.80;;;20.30;99.90;;;;;;5041919;28;20221;-61
2023/10/20 12:04:05;;;;;;;3.47;1.90;;;20.10;99.90;;;;;;5042360;28;20248;-61
2023/10/20 12:06:34;;;;;;;1.50;1.40;;;20.00;99.90;;;;;;5039815;28;20216;-61
2023/10/20 12:09:01;;;;;;;3.33;1.60;;;20.00;99.90;;;;;;5038625;28;20686;-61
2023/10/20 12:11:29;;;;;;;1.42;1.33;;;20.00;99.90;;;;;;5040093;28;20232;-61
2023/10/20 12:13:56;;;;;;;1.33;1.23;;;19.80;99.90;;;;;;5042521;28;20198;-62
2023/10/20 12:16:24;;;;;;;3.22;1.15;;;19.80;99.90;;;;;;5042650;28;20210;-60
2023/10/20 12:18:51;;;;;;;2.05;0.80;;;19.80;99.90;;;;;;5042880;28;20288;-61
2023/10/20 12:21:18;;;;;;;1.02;0.60;;;19.70;99.90;;;;;;5042255;28;20296;-61
2023/10/20 12:23:45;;;;;;;1.25;0.60;;;19.80;99.90;;;;;;5039208;28;20225;-61
2023/10/20 12:26:12;;;;;;;1.25;0.63;;;19.80;99.90;;;;;;5039441;28;20289;-62
2023/10/20 12:28:40;;;;;;;0.50;0.50;;;19.90;99.90;;;;;;5042235;28;20773;-62
2023/10/20 12:31:06;;;;;;;3.15;0.60;;;19.90;99.90;;;;;;5042399;28;20691;-61
2023/10/20 12:33:33;;;;;;;1.02;0.50;;;19.90;99.90;;;;;;5040108;28;20694;-62
2023/10/20 12:36:00;;;;;;;1.48;0.63;;;20.00;99.90;;;;;;5039340;28;20691;-62
2023/10/20 12:38:27;;;;;;;2.28;0.82;;;20.00;99.90;;;;;;5040682;28;20687;-62
2023/10/20 12:40:53;;;;;;;1.67;0.30;;;20.00;99.90;;;;;;5042741;28;20198;-62
2023/10/20 12:43:20;;;;;;;3.03;0.52;;;20.10;99.90;;;;;;5042354;28;20228;-61
2023/10/20 12:45:48;;;;;;;2.55;0.50;;;20.30;99.90;;;;;;5039142;28;20219;-62
2023/10/20 12:48:15;;;;;;;1.17;1.08;;;20.40;99.90;;;;;;5039102;28;20202;-61
2023/10/20 12:50:42;;;;;;;0.40;0.35;;;20.60;99.90;;;;;;5031072;28;20209;-61
2023/10/20 12:53:09;;;;;;;1.15;0.98;;;20.60;99.90;;;;;;5038956;28;20230;-61
2023/10/20 12:55:35;;;;;;;2.60;1.08;;;20.70;99.90;;;;;;5041770;28;20213;-60
2023/10/20 12:58:03;;;;;;;1.80;1.52;;;20.70;99.90;;;;;;5042439;28;20288;-62
2023/10/20 13:00:30;;;;;;;5.70;5.20;;;20.70;99.90;;;;;;5040497;28;20233;-63
2023/10/20 13:02:58;;;;;;;2.05;1.50;;;20.80;99.90;;;;;;5040103;28;20230;-62
2023/10/20 13:05:24;;;;;;;1.15;0.60;;;20.80;99.90;;;;;;5043694;28;20225;-62
2023/10/20 13:07:51;;;;;;;0.98;0.30;;;20.80;99.90;;;;;;5045870;28;20671;-61
2023/10/20 13:10:19;;;;;;;0.20;0.20;;;20.80;99.90;;;;;;5045689;28;20584;-63
2023/10/20 13:12:46;;;;;;;1.00;0.50;;;20.70;99.90;;;;;;5042500;28;20265;-61